Terminal Aerodrome Forecast
Issued by NWS

Home | Current Version | Previous Version | Text Only | Print | Product List | Glossary On
Versions: 1 2 3 4 5 6 7 8 9 10 11 12 13 14 15 16 17 18 19 20 21 22 23 24 25 26 27
000
FTUS45 KVEF 262320
TAFLAS
TAF
KLAS 262320Z 2700/2724 11008KT P6SM FEW100 SCT250
     FM270300 22009KT P6SM FEW250
     FM271700 33012G20KT P6SM SCT100 SCT250=

USA.gov is the U.S. government's official web portal to all federal, state and local government web resources and services.